• Join FlightAware (Why Join?)
  • Login
  • US Flag 
10:06AM EDT


 

Airport Tracker/Info


-or-


 

Live Flight TrackerFlight Track Log ✈ SKW6306 ✈ 15-Jun-2013 ✈ CYXE - KDEN

Flight Track Log - Related Links

Times and Time Zones

All times are in EDT time to prevent confusion due to time zone crossing. See the SKW6306 flight status page for this flight to view local times or setup timezone preferences in your user account.

Time Position Orientation Groundspeed Altitude Reporting Facility
EDT Latitude Longitude Course Direction KTS MPH feet Rate Location/Type
04:42PM 52.1333 -106.8333 223° Southwest 210 242 5,200  Level Winnipeg Center
04:43PM 51.8372 -106.8798 199° South  Level FlightAware Approximate
04:43PM 52.0500 -106.8667 194° South 290 334 7,000  Level Winnipeg Center
04:44PM 51.7256 -106.9373 197° South  Level FlightAware Approximate
04:44PM 51.9667 -106.9000 194° South 290 334 9,900  Level Winnipeg Center
04:45PM 51.6134 -106.9866 212° Southwest  Level FlightAware Approximate
04:45PM 51.9000 -106.9500 205° Southwest 320 368 11,600  Level Winnipeg Center
04:46PM 51.5038 -107.0515 198° South  Level FlightAware Approximate
04:46PM 51.8000 -107.0000 197° South 330 380 13,600  Level Winnipeg Center
04:47PM 51.7000 -107.0333 192° South 340 391 14,800 1,320 Climbing Winnipeg Center
04:48PM 51.6167 -107.0667 194° South 350 403 16,300 1,440 Climbing Winnipeg Center
04:49PM 51.5333 -107.1333 206° Southwest 350 403 17,700 1,500 Climbing Winnipeg Center
04:50PM 51.4167 -107.1833 195° South 360 414 19,300 1,380 Climbing Winnipeg Center
04:51PM 51.3333 -107.2167 194° South 370 426 20,500 1,200 Climbing Winnipeg Center
04:52PM 51.2333 -107.2833 203° Southwest 380 437 21,700 1,080 Climbing Winnipeg Center
04:53PM 51.1333 -107.3167 192° South 380 437 22,700 960 Climbing Winnipeg Center
04:54PM 51.0167 -107.3667 195° South 390 449 23,700 960 Climbing Winnipeg Center
04:55PM 50.9167 -107.4167 197° South 390 449 24,700 960 Climbing Winnipeg Center
04:56PM 50.8000 -107.4833 200° South 390 449 25,700 780 Climbing Winnipeg Center
04:57PM 50.7167 -107.5167 194° South 390 449 26,300 600 Climbing Winnipeg Center
04:58PM 50.6000 -107.5667 195° South 400 460 26,900 540 Climbing Winnipeg Center
04:59PM 50.4833 -107.6167 195° South 410 472 27,400 600 Climbing Winnipeg Center
05:00PM 50.3667 -107.6667 195° South 420 483 28,100 660 Climbing Winnipeg Center
05:01PM 50.2667 -107.7167 198° South 420 483 28,800 720 Climbing Winnipeg Center
05:02PM 50.1333 -107.7500 189° South 420 483 29,600 600 Climbing Winnipeg Center
05:03PM 50.0333 -107.7500 180° South 420 483 30,100 480 Climbing Winnipeg Center
05:04PM 49.9167 -107.7833 190° South 420 483 30,600 540 Climbing Winnipeg Center
05:05PM 49.8000 -107.7667 175° South 420 483 31,200 600 Climbing Winnipeg Center
05:06PM 49.6833 -107.8000 190° South 420 483 31,800 600 Climbing Winnipeg Center
05:07PM 49.5667 -107.8000 180° South 420 483 32,400 540 Climbing Winnipeg Center
05:08PM 49.4667 -107.8333 192° South 410 472 32,900 300 Climbing Winnipeg Center
05:09PM 49.3500 -107.8333 180° South 410 472 33,000  Climbing Winnipeg Center
05:10PM 49.2167 -107.8500 185° South 420 483 33,000  Level Winnipeg Center
05:11PM 49.1000 -107.8500 180° South 430 495 33,000  Level Winnipeg Center
05:12PM 48.9833 -107.8667 185° South 440 506 33,000  Level Winnipeg Center
05:13PM 48.8667 -107.8667 180° South 440 506 33,000  Level Winnipeg Center
05:13PM 48.7808 -107.8633 179° South 439 505 33,000 -60 Level Salt Lake Center
05:15PM 48.6572 -107.8761 184° South 443 510 32,900  Descending Salt Lake Center
05:16PM 48.5350 -107.8903 184° South 442 509 33,000  Climbing Salt Lake Center
05:17PM 48.3917 -107.9061 184° South 437 503 33,000  Level Salt Lake Center
05:18PM 48.2683 -107.9189 184° South 440 506 33,000  Level Salt Lake Center
05:19PM 48.1481 -107.9314 184° South 439 505 33,000  Level Salt Lake Center
05:20PM 48.0322 -107.9450 184° South 427 491 33,000  Level Salt Lake Center
05:21PM 47.9125 -107.9503 182° South 430 495 33,000  Level Salt Lake Center
05:22PM 47.7897 -107.9125 168° South 447 514 33,000  Level Salt Lake Center
05:23PM 47.6689 -107.8772 169° South 444 511 33,000  Level Salt Lake Center
05:24PM 47.5233 -107.8353 169° South 445 512 33,000  Level Salt Lake Center
05:25PM 47.4039 -107.7989 168° South 446 513 33,000  Level Salt Lake Center
05:26PM 47.2878 -107.7661 169° South 445 512 33,000  Level Salt Lake Center
05:27PM 47.1514 -107.7256 169° South 446 513 33,000  Level Salt Lake Center
05:28PM 47.0350 -107.6936 169° South 445 512 33,000  Level Salt Lake Center
05:29PM 46.8994 -107.6542 169° South 446 513 33,000  Level Salt Lake Center
05:30PM 46.7831 -107.6206 169° South 445 512 33,000  Level Salt Lake Center
05:31PM 46.6475 -107.5842 170° South 445 512 33,000  Level Salt Lake Center
05:32PM 46.5306 -107.5494 168° South 446 513 33,000  Level Salt Lake Center
05:33PM 46.3969 -107.5117 169° South 440 506 33,000  Level Salt Lake Center
05:34PM 46.2833 -107.4800 169° South 434 499 33,000  Level Salt Lake Center
05:35PM 46.1708 -107.4483 169° South 431 496 33,000  Level Salt Lake Center
05:36PM 46.0411 -107.4125 169° South 425 489 33,000  Level Salt Lake Center
05:37PM 45.9294 -107.3828 170° South 425 489 33,000  Level Salt Lake Center
05:38PM 45.7992 -107.3469 169° South 427 491 33,000  Level Salt Lake Center
05:39PM 45.6875 -107.3167 169° South 426 490 33,000  Level Salt Lake Center
05:40PM 45.5567 -107.2808 169° South 427 491 33,000  Level Salt Lake Center
05:41PM 45.4436 -107.2500 169° South 430 495 33,000  Level Salt Lake Center
05:42PM 45.3308 -107.2178 169° South 430 495 33,000  Level Salt Lake Center
05:43PM 45.2017 -107.1861 170° South 425 489 33,000  Level Salt Lake Center
05:44PM 45.0900 -107.1542 169° South 424 488 33,000  Level Salt Lake Center
05:45PM 44.9583 -107.1197 170° South 428 493 33,000  Level Salt Lake Center
05:46PM 44.8458 -107.0906 170° South 428 493 33,000  Level Salt Lake Center
05:47PM 44.7150 -107.0556 169° South 428 493 33,000  Level Salt Lake Center
05:49PM 44.6017 -107.0269 170° South 430 495 33,000  Level Salt Lake Center
05:50PM 44.4883 -106.9986 170° South 431 496 33,000  Level Salt Lake Center
05:51PM 44.3558 -106.9639 169° South 432 497 33,000  Level Salt Lake Center
05:52PM 44.2436 -106.9367 170° South 429 494 33,000  Level Salt Lake Center
05:53PM 44.1139 -106.9008 169° South 430 495 33,000  Level Salt Lake Center
05:53PM 44.0764 -106.8911 169° South 430 495 33,000  Level Denver Center
05:54PM 44.0011 -106.8722 170° South 430 495 33,000  Level Salt Lake Center
05:55PM 43.8842 -106.8469 171° South 438 504 33,000  Level Salt Lake Center
05:55PM 43.8317 -106.8283 166° South 428 493 33,000  Level Denver Center
05:56PM 43.7183 -106.7997 170° South 433 498 33,000  Level Denver Center
05:57PM 43.5886 -106.7678 170° South 426 490 33,000  Level Denver Center
05:58PM 43.4772 -106.7375 169° South 426 490 33,000  Level Denver Center
05:59PM 43.3472 -106.7053 170° South 426 490 33,000  Level Denver Center
06:00PM 43.2372 -106.6781 170° South 421 484 33,000  Level Denver Center
06:01PM 43.1250 -106.6506 170° South 425 489 33,000  Level Denver Center
06:02PM 42.9964 -106.6192 170° South 422 486 33,000  Level Denver Center
06:03PM 42.8850 -106.5911 170° South 424 488 33,000  Level Denver Center
06:04PM 42.7553 -106.5589 170° South 424 488 33,000  Level Denver Center
06:05PM 42.6442 -106.5306 169° South 425 489 33,000  Level Denver Center
06:06PM 42.5192 -106.4631 158° South 437 503 33,000  Level Denver Center
06:07PM 42.4136 -106.3967 155° Southeast 438 504 33,000  Level Denver Center
06:08PM 42.2881 -106.3206 156° South 442 509 33,000  Level Denver Center
06:09PM 42.1819 -106.2544 155° Southeast 440 506 33,000  Level Denver Center
06:11PM 42.0744 -106.1881 155° Southeast 444 511 33,000  Level Denver Center
06:12PM 41.9494 -106.1117 156° South 443 510 33,000  Level Denver Center
06:13PM 41.8425 -106.0458 155° Southeast 444 511 33,000  Level Denver Center
06:14PM 41.7183 -105.9703 156° South 440 506 33,000  Level Denver Center
06:15PM 41.6119 -105.9056 156° South 440 506 33,000  Level Denver Center
06:16PM 41.4667 -105.8706 170° South 417 480 33,000  Level Denver Center
06:17PM 41.3567 -105.8469 171° South 418 481 33,000  Level Denver Center
06:18PM 41.2289 -105.8228 172° South 417 480 33,000  Level Denver Center
06:19PM 41.1194 -105.8011 172° South 416 479 33,000  Level Denver Center
06:20PM 40.9886 -105.7767 172° South 416 479 33,000  Level Denver Center
06:21PM 40.8767 -105.7739 179° South 404 465 33,000 -1,080 Level Denver Center
06:22PM 40.7728 -105.8222 199° South 399 459 30,900 -2,100 Descending Denver Center
06:23PM 40.6742 -105.8842 205° Southwest 396 456 28,700 -2,520 Descending Denver Center
06:24PM 40.5744 -105.9494 206° Southwest 400 460 25,800 -3,000 Descending Denver Center
06:25PM 40.4775 -106.0186 208° Southwest 398 458 22,600 -3,420 Descending Denver Center
06:26PM 40.3900 -106.0769 207° Southwest 359 413 18,900 -2,760 Descending Denver Center
06:27PM 40.2786 -106.0683 177° South 360 414 17,000 -960 Descending Denver Center
06:28PM 40.2353 -105.9647 119° Southeast 336 387 17,000  Level Denver Center
06:29PM 40.2389 -105.8336 88° East 353 406 17,000  Level Denver Center
06:30PM 40.2411 -105.6819 89° East 350 403 17,000  Level Denver Center
06:31PM 40.2442 -105.5514 88° East 357 411 17,000  Level Denver Center
06:32PM 40.2458 -105.4078 89° East 374 430 17,000 -120 Level Denver Center
06:34PM 40.2428 -105.2667 92° East 368 423 16,800 -720 Descending Denver Center
06:35PM 40.1842 -105.1664 127° Southeast 354 407 15,600 -1,020 Descending Denver Center
06:36PM 40.1225 -105.0719 130° Southeast 342 394 14,800 -780 Descending Denver Center
06:37PM 40.0600 -104.9756 130° Southeast 325 374 14,000 -840 Descending Denver Center
06:38PM 40.0025 -104.8850 130° Southeast 324 373 13,200 -900 Descending Denver Center
06:39PM 39.9386 -104.8106 138° Southeast 311 358 12,200 -1,080 Descending Denver Center
06:40PM 39.8494 -104.8094 179° South 300 345 11,000 -600 Descending Denver Center
06:41PM 39.7792 -104.8106 181° South 248 285 11,000 -120 Level Denver Center
06:42PM 39.7136 -104.8114 181° South 239 275 10,800 -780 Descending Denver Center
06:43PM 39.6489 -104.7942 168° South 238 274 9,500 -1,260 Descending Denver Center
06:44PM 39.6789 -104.7328 58° Northeast 232 267 8,300 -1,200 Descending Denver Center